createdAt,value
2019-02-27T00:01:03.590Z,16.87
2019-02-27T00:02:07.342Z,17.50
2019-02-27T00:03:11.092Z,17.40
2019-02-27T00:04:14.738Z,18.00
2019-02-27T00:05:18.466Z,17.35
2019-02-27T00:06:22.213Z,17.55
2019-02-27T00:07:25.948Z,17.87
2019-02-27T00:08:29.585Z,17.87
2019-02-27T00:09:33.440Z,17.55
2019-02-27T00:10:39.262Z,17.95
2019-02-27T00:11:45.862Z,18.40
2019-02-27T00:12:51.770Z,18.27
2019-02-27T00:13:57.651Z,18.17
2019-02-27T00:15:02.112Z,18.12
2019-02-27T00:16:04.972Z,18.30
2019-02-27T00:17:08.617Z,17.87
2019-02-27T00:18:12.727Z,17.05
2019-02-27T00:19:16.728Z,18.75
2019-02-27T00:20:20.375Z,17.12
2019-02-27T00:21:24.048Z,18.27
2019-02-27T00:22:27.699Z,17.95
2019-02-27T00:23:31.373Z,17.02
2019-02-27T00:24:35.073Z,17.82
2019-02-27T00:25:38.720Z,17.27
2019-02-27T00:26:43.073Z,17.25
2019-02-27T00:27:49.144Z,17.17
2019-02-27T00:28:55.983Z,16.87
2019-02-27T00:29:59.463Z,17.55
2019-02-27T00:31:02.999Z,16.70
2019-02-27T00:32:07.025Z,18.67
2019-02-27T00:33:10.620Z,17.25
2019-02-27T00:34:14.281Z,17.73
2019-02-27T00:35:17.942Z,17.73
2019-02-27T00:36:21.586Z,17.80
2019-02-27T00:37:25.233Z,18.12
2019-02-27T00:38:28.875Z,17.20
2019-02-27T00:39:32.556Z,16.97
2019-02-27T00:40:39.359Z,17.15
2019-02-27T00:41:45.708Z,16.87
2019-02-27T00:42:47.710Z,16.82
2019-02-27T00:43:51.352Z,17.07
2019-02-27T00:44:55.025Z,17.35
2019-02-27T00:45:58.589Z,16.73
2019-02-27T00:47:02.224Z,17.67
2019-02-27T00:48:05.872Z,17.80
2019-02-27T00:49:09.526Z,17.48
2019-02-27T00:50:13.242Z,16.57
2019-02-27T00:51:16.894Z,17.23
2019-02-27T00:52:20.466Z,17.35
2019-02-27T00:53:24.437Z,16.82
2019-02-27T00:54:29.005Z,17.50
2019-02-27T00:55:38.450Z,18.02
2019-02-27T00:56:44.841Z,17.35
2019-02-27T00:57:45.744Z,17.07
2019-02-27T00:58:49.386Z,18.30
2019-02-27T00:59:53.119Z,17.98
2019-02-27T01:00:56.805Z,17.30
2019-02-27T01:02:00.457Z,16.60
2019-02-27T01:03:04.104Z,17.17
2019-02-27T01:04:07.814Z,17.30
2019-02-27T01:05:11.943Z,17.05
2019-02-27T01:06:15.604Z,17.00
2019-02-27T01:07:20.742Z,16.35
2019-02-27T01:08:25.093Z,16.82
2019-02-27T01:09:29.993Z,17.50
2019-02-27T01:10:33.640Z,18.32
2019-02-27T01:11:37.393Z,16.87
2019-02-27T01:12:41.241Z,17.60
2019-02-27T01:13:44.882Z,16.17
2019-02-27T01:14:48.529Z,17.25
2019-02-27T01:15:52.171Z,16.97
2019-02-27T01:16:55.844Z,17.20
2019-02-27T01:17:59.491Z,16.25
2019-02-27T01:19:04.756Z,16.23
2019-02-27T01:20:12.687Z,18.07
2019-02-27T01:21:19.261Z,17.77
2019-02-27T01:22:21.788Z,17.45
2019-02-27T01:23:25.415Z,15.43
2019-02-27T01:24:29.056Z,17.25
2019-02-27T01:25:33.042Z,16.32
2019-02-27T01:26:36.688Z,15.50
2019-02-27T01:27:40.296Z,14.45
2019-02-27T01:28:45.477Z,15.23
2019-02-27T01:29:51.581Z,15.60
2019-02-27T01:30:54.641Z,14.80
2019-02-27T01:31:58.322Z,14.80
2019-02-27T01:33:04.201Z,15.18
2019-02-27T01:34:11.163Z,13.45
2019-02-27T01:35:17.520Z,13.58
2019-02-27T01:36:21.767Z,12.47
2019-02-27T01:37:24.975Z,13.10
2019-02-27T01:38:28.665Z,13.58
2019-02-27T01:39:32.314Z,13.70
2019-02-27T01:40:35.953Z,14.47
2019-02-27T01:41:39.914Z,12.25
2019-02-27T01:42:43.559Z,13.70
2019-02-27T01:43:47.232Z,12.93
2019-02-27T01:44:50.965Z,13.38
2019-02-27T01:45:55.018Z,14.05
2019-02-27T01:47:01.537Z,12.85
2019-02-27T01:48:04.125Z,13.50
2019-02-27T01:49:07.779Z,12.37
2019-02-27T01:50:34.931Z,13.88
2019-02-27T01:51:38.567Z,13.55
2019-02-27T01:52:42.209Z,14.30
2019-02-27T01:53:45.845Z,13.93
2019-02-27T01:54:49.618Z,14.47
2019-02-27T01:55:56.247Z,13.95
2019-02-27T01:57:02.496Z,14.35
2019-02-27T01:58:04.326Z,14.80
2019-02-27T01:59:07.976Z,15.05
2019-02-27T02:00:11.756Z,15.03
2019-02-27T02:01:15.406Z,14.35
2019-02-27T02:02:19.366Z,14.60
2019-02-27T02:03:23.033Z,14.40
2019-02-27T02:04:26.656Z,15.13
2019-02-27T02:05:31.368Z,14.18
2019-02-27T02:06:35.003Z,12.98
2019-02-27T02:07:40.288Z,13.60
2019-02-27T02:08:47.928Z,13.08
2019-02-27T02:09:49.376Z,12.05
2019-02-27T02:10:56.079Z,11.60
2019-02-27T02:12:11.403Z,12.33
2019-02-27T02:13:18.440Z,13.30
2019-02-27T02:14:40.015Z,12.25
2019-02-27T02:16:10.699Z,12.10
2019-02-27T02:17:20.045Z,12.25
2019-02-27T02:18:29.434Z,11.22
2019-02-27T02:19:35.992Z,11.40
2019-02-27T02:21:00.896Z,11.28
2019-02-27T02:22:11.306Z,10.65
2019-02-27T02:23:33.148Z,11.30
2019-02-27T02:25:00.561Z,10.90
2019-02-27T02:26:16.091Z,10.75
2019-02-27T02:27:22.684Z,11.38
2019-02-27T02:28:48.218Z,11.18
2019-02-27T02:30:16.917Z,11.25
2019-02-27T02:31:32.525Z,11.10
2019-02-27T02:32:55.565Z,11.38
2019-02-27T02:34:24.762Z,10.88
2019-02-27T02:35:34.220Z,11.53
2019-02-27T02:36:46.561Z,10.35
2019-02-27T02:38:12.334Z,11.08
2019-02-27T02:39:31.399Z,10.45
2019-02-27T02:40:54.438Z,11.20
2019-02-27T02:42:06.718Z,10.80
2019-02-27T02:43:41.641Z,10.80
2019-02-27T02:45:02.659Z,10.85
2019-02-27T02:46:12.223Z,10.08
2019-02-27T02:47:27.737Z,10.25
2019-02-27T02:48:56.899Z,10.48
2019-02-27T02:50:18.474Z,10.23
2019-02-27T02:51:34.233Z,10.15
2019-02-27T02:52:46.600Z,10.15
2019-02-27T02:54:08.230Z,10.98
2019-02-27T02:55:23.985Z,11.78
2019-02-27T02:56:36.167Z,9.98
2019-02-27T02:57:57.738Z,10.10
2019-02-27T02:59:36.321Z,9.90
2019-02-27T03:00:42.881Z,10.32
2019-02-27T03:01:50.220Z,9.85
2019-02-27T03:03:11.271Z,9.90
2019-02-27T03:04:51.440Z,10.05
2019-02-27T03:06:17.661Z,9.83
2019-02-27T03:07:35.614Z,9.45
2019-02-27T03:08:47.934Z,9.85
2019-02-27T03:09:57.135Z,10.08
2019-02-27T03:11:19.139Z,9.15
2019-02-27T03:12:30.959Z,10.03
2019-02-27T03:13:41.511Z,8.88
2019-02-27T03:15:18.619Z,9.25
2019-02-27T03:16:41.067Z,9.30
2019-02-27T03:17:55.120Z,8.75
2019-02-27T03:19:06.262Z,9.10
2019-02-27T03:20:32.818Z,9.60
2019-02-27T03:21:51.454Z,10.38
2019-02-27T03:23:26.582Z,9.05
2019-02-27T03:24:49.893Z,9.23
2019-02-27T03:26:05.579Z,9.28
2019-02-27T03:27:14.895Z,9.85
2019-02-27T03:28:21.442Z,9.28
2019-02-27T03:29:39.767Z,9.25
2019-02-27T03:30:58.114Z,10.20
2019-02-27T03:32:10.533Z,10.03
2019-02-27T03:33:32.065Z,10.18
2019-02-27T03:34:51.475Z,10.82
2019-02-27T03:36:04.454Z,9.53
2019-02-27T03:37:23.297Z,10.05
2019-02-27T03:39:01.674Z,9.58
2019-02-27T03:40:45.099Z,9.90
2019-02-27T03:42:12.811Z,10.00
2019-02-27T03:43:31.371Z,10.58
2019-02-27T03:44:40.795Z,11.40
2019-02-27T03:46:06.284Z,10.82
2019-02-27T03:47:17.075Z,10.48
2019-02-27T03:48:49.664Z,11.40
2019-02-27T03:49:58.983Z,10.13
2019-02-27T03:51:37.382Z,10.82
2019-02-27T03:52:52.657Z,9.20
2019-02-27T03:54:20.879Z,10.32
2019-02-27T03:55:32.893Z,10.50
2019-02-27T03:57:01.002Z,10.23
2019-02-27T03:58:16.463Z,10.78
2019-02-27T03:59:34.640Z,10.98
2019-02-27T04:01:02.725Z,10.70
2019-02-27T04:02:23.803Z,10.98
2019-02-27T04:03:30.359Z,11.38
2019-02-27T04:04:45.596Z,11.15
2019-02-27T04:06:19.640Z,11.75
2019-02-27T04:07:31.895Z,10.58
2019-02-27T04:08:56.711Z,11.12
2019-02-27T04:10:00.380Z,11.65
2019-02-27T04:11:05.887Z,11.93
2019-02-27T04:12:09.437Z,11.60
2019-02-27T04:13:13.076Z,12.95
2019-02-27T04:14:30.616Z,12.23
2019-02-27T04:15:34.428Z,11.93
2019-02-27T04:16:38.272Z,10.88
2019-02-27T04:17:40.733Z,11.20
2019-02-27T04:18:44.367Z,12.03
2019-02-27T04:19:48.009Z,11.15
2019-02-27T04:20:51.653Z,11.63
2019-02-27T04:22:00.479Z,13.20
2019-02-27T04:23:01.385Z,13.35
2019-02-27T04:24:05.022Z,12.73
2019-02-27T04:25:09.079Z,11.78
2019-02-27T04:26:13.103Z,12.10
2019-02-27T04:27:20.035Z,13.15
2019-02-27T04:28:22.150Z,14.68
2019-02-27T04:29:25.779Z,13.15
2019-02-27T04:30:29.459Z,13.38
2019-02-27T04:31:33.153Z,13.28
2019-02-27T04:32:36.801Z,14.20
2019-02-27T04:33:40.540Z,14.60
2019-02-27T04:34:44.180Z,17.12
2019-02-27T04:35:47.811Z,13.75
2019-02-27T04:36:51.459Z,14.78
2019-02-27T04:37:55.103Z,14.50
2019-02-27T04:39:01.875Z,12.20
2019-02-27T04:40:06.035Z,13.68
2019-02-27T04:41:09.663Z,12.88
2019-02-27T04:42:13.315Z,13.70
2019-02-27T04:43:16.949Z,14.10
2019-02-27T04:44:20.637Z,14.35
2019-02-27T04:45:24.668Z,14.23
2019-02-27T04:46:28.313Z,13.55
2019-02-27T04:47:31.934Z,14.23
2019-02-27T04:48:35.620Z,14.90
2019-02-27T04:49:39.310Z,14.30
2019-02-27T04:50:44.163Z,13.05
2019-02-27T04:51:50.610Z,12.98
2019-02-27T04:52:57.751Z,13.32
2019-02-27T04:53:59.145Z,13.28
2019-02-27T04:55:03.123Z,14.20
2019-02-27T04:56:06.762Z,14.40
2019-02-27T04:57:10.449Z,14.18
2019-02-27T04:58:14.099Z,14.75
2019-02-27T04:59:18.773Z,13.50
2019-02-27T05:00:26.099Z,13.88
2019-02-27T05:01:28.382Z,13.38
2019-02-27T05:02:32.402Z,15.15
2019-02-27T05:03:36.033Z,14.38
2019-02-27T05:04:39.667Z,14.13
2019-02-27T05:05:43.335Z,14.78
2019-02-27T05:06:47.780Z,13.62
2019-02-27T05:07:54.131Z,15.78
2019-02-27T05:08:59.786Z,17.85
2019-02-27T05:10:02.283Z,17.05
2019-02-27T05:11:05.972Z,17.87
2019-02-27T05:12:09.616Z,18.23
2019-02-27T05:13:13.259Z,17.70
2019-02-27T05:14:16.896Z,17.62
2019-02-27T05:15:20.540Z,16.32
2019-02-27T05:16:24.142Z,15.25
2019-02-27T05:17:27.780Z,18.92
2019-02-27T05:18:31.426Z,19.32
2019-02-27T05:19:37.242Z,17.87
2019-02-27T05:20:44.800Z,18.75
2019-02-27T05:21:45.816Z,14.75
2019-02-27T05:22:49.456Z,21.27
2019-02-27T05:23:53.028Z,16.87
2019-02-27T05:24:57.011Z,16.05
2019-02-27T05:26:00.659Z,15.80
2019-02-27T05:27:04.341Z,16.10
2019-02-27T05:28:07.978Z,18.73
2019-02-27T05:29:11.614Z,17.50
2019-02-27T05:30:15.545Z,17.75
2019-02-27T05:31:19.222Z,15.50
2019-02-27T05:32:25.315Z,14.60
2019-02-27T05:33:28.675Z,13.25
2019-02-27T05:34:32.477Z,12.98
2019-02-27T05:35:36.445Z,14.25
2019-02-27T05:36:40.091Z,15.53
2019-02-27T05:37:44.262Z,16.27
2019-02-27T05:38:47.962Z,16.23
2019-02-27T05:39:51.785Z,14.95
2019-02-27T05:40:59.875Z,14.70
2019-02-27T05:42:00.985Z,18.02
2019-02-27T05:43:04.703Z,17.45
2019-02-27T05:44:08.352Z,17.70
2019-02-27T05:45:12.669Z,21.27
2019-02-27T05:46:16.379Z,19.45
2019-02-27T05:47:20.073Z,19.90
2019-02-27T05:48:23.715Z,23.30
2019-02-27T05:49:27.542Z,24.63
2019-02-27T05:50:33.982Z,22.62
2019-02-27T05:51:36.984Z,20.48
2019-02-27T05:52:40.659Z,20.48
2019-02-27T05:53:47.684Z,19.00
2019-02-27T05:54:51.322Z,18.75
2019-02-27T05:55:54.969Z,21.10
2019-02-27T05:56:58.673Z,20.17
2019-02-27T05:58:02.732Z,19.57
2019-02-27T05:59:06.385Z,20.30
2019-02-27T06:00:15.975Z,23.70
2019-02-27T06:01:19.619Z,25.40
2019-02-27T06:02:23.270Z,24.90
2019-02-27T06:03:26.951Z,25.27
2019-02-27T06:04:30.600Z,24.37
2019-02-27T06:05:36.011Z,26.12
2019-02-27T06:06:39.683Z,27.48
2019-02-27T06:07:43.323Z,26.97
2019-02-27T06:08:47.016Z,24.52
2019-02-27T06:09:50.716Z,26.48
2019-02-27T06:10:55.993Z,22.98
2019-02-27T06:11:59.900Z,22.25
2019-02-27T06:13:03.633Z,24.07
2019-02-27T06:14:07.305Z,26.48
2019-02-27T06:15:18.793Z,29.65
2019-02-27T06:16:22.444Z,28.07
2019-02-27T06:17:27.735Z,27.60
2019-02-27T06:18:31.335Z,31.93
2019-02-27T06:19:37.266Z,28.30
2019-02-27T06:20:42.760Z,28.17
2019-02-27T06:21:46.712Z,29.42
2019-02-27T06:22:50.302Z,28.90
2019-02-27T06:23:53.941Z,29.82
2019-02-27T06:24:57.549Z,28.75
2019-02-27T06:26:02.631Z,26.37
2019-02-27T06:27:06.923Z,26.70
2019-02-27T06:28:13.674Z,27.07
2019-02-27T06:29:17.323Z,25.40
2019-02-27T06:30:21.661Z,24.75
2019-02-27T06:31:25.310Z,25.23
2019-02-27T06:32:33.300Z,23.57
2019-02-27T06:33:37.608Z,23.98
2019-02-27T06:34:41.251Z,30.27
2019-02-27T06:35:45.114Z,35.60
2019-02-27T06:36:48.766Z,32.17
2019-02-27T06:37:52.405Z,25.72
2019-02-27T06:39:00.139Z,30.60
2019-02-27T06:40:01.383Z,32.03
2019-02-27T06:41:05.026Z,38.23
2019-02-27T06:42:08.733Z,35.08
2019-02-27T06:43:12.393Z,36.53
2019-02-27T06:44:16.127Z,38.23
2019-02-27T06:45:19.785Z,37.45
2019-02-27T06:46:23.483Z,38.33
2019-02-27T06:47:27.161Z,57.50
2019-02-27T06:48:30.817Z,48.33
2019-02-27T06:49:34.487Z,52.43
2019-02-27T06:50:38.137Z,45.03
2019-02-27T06:51:41.781Z,44.38
2019-02-27T06:52:45.434Z,96.17
2019-02-27T06:53:48.946Z,53.42
2019-02-27T06:54:52.933Z,26.42
2019-02-27T06:55:56.701Z,14.23
2019-02-27T06:57:00.337Z,16.40
2019-02-27T06:58:04.210Z,21.40
2019-02-27T06:59:08.157Z,17.67
2019-02-27T07:00:17.648Z,14.27
2019-02-27T07:01:21.309Z,10.13
2019-02-27T07:02:24.944Z,10.00
2019-02-27T07:03:29.519Z,13.30
2019-02-27T07:04:39.204Z,11.30
2019-02-27T07:05:39.312Z,12.50
2019-02-27T07:06:42.987Z,10.00
2019-02-27T07:07:46.618Z,9.27
2019-02-27T07:08:50.258Z,10.33
2019-02-27T07:09:53.891Z,10.13
2019-02-27T07:11:09.946Z,12.03
2019-02-27T07:12:03.314Z,10.43
2019-02-27T07:13:06.959Z,11.67
2019-02-27T07:14:10.597Z,11.60
2019-02-27T07:15:18.828Z,9.53
2019-02-27T07:16:22.899Z,9.40
2019-02-27T07:17:29.225Z,9.10
2019-02-27T07:18:32.803Z,9.10
2019-02-27T07:19:36.440Z,10.57
2019-02-27T07:20:40.070Z,10.23
2019-02-27T07:21:43.705Z,11.00
2019-02-27T07:22:47.409Z,10.03
2019-02-27T07:23:51.047Z,9.40
2019-02-27T07:24:54.684Z,14.40
2019-02-27T07:25:58.329Z,11.07
2019-02-27T07:27:02.318Z,10.47
2019-02-27T07:28:08.170Z,8.20
2019-02-27T07:29:21.119Z,9.27
2019-02-27T07:30:23.814Z,8.43
2019-02-27T07:31:27.708Z,6.67
2019-02-27T07:32:32.112Z,7.37
2019-02-27T07:33:37.986Z,8.43
2019-02-27T07:34:41.158Z,9.07
2019-02-27T07:35:44.793Z,8.00
2019-02-27T07:36:48.413Z,8.57
2019-02-27T07:37:52.059Z,14.90
2019-02-27T07:38:57.656Z,14.20
2019-02-27T07:40:01.103Z,13.37
2019-02-27T07:41:04.727Z,11.20
2019-02-27T07:42:08.364Z,8.83
2019-02-27T07:43:12.057Z,7.63
2019-02-27T07:44:15.696Z,6.87
2019-02-27T07:45:22.576Z,8.20
2019-02-27T07:46:26.155Z,9.30
2019-02-27T07:47:30.132Z,10.77
2019-02-27T07:48:33.768Z,10.87
2019-02-27T07:49:37.430Z,9.17
2019-02-27T07:50:41.409Z,10.90
2019-02-27T07:51:45.045Z,15.53
2019-02-27T07:52:49.066Z,9.13
2019-02-27T07:53:53.814Z,12.70
2019-02-27T07:54:58.506Z,8.33
2019-02-27T07:56:02.609Z,8.83
2019-02-27T07:57:06.528Z,9.70
2019-02-27T07:58:10.159Z,8.73
2019-02-27T07:59:13.712Z,8.10
2019-02-27T08:00:19.164Z,8.17
2019-02-27T08:01:23.511Z,7.53
2019-02-27T08:02:27.907Z,7.97
2019-02-27T08:03:31.535Z,8.57
2019-02-27T08:04:35.082Z,7.33
2019-02-27T08:05:38.740Z,7.83
2019-02-27T08:06:42.384Z,8.30
2019-02-27T08:07:48.676Z,8.37
2019-02-27T08:08:51.365Z,8.53
2019-02-27T08:09:56.437Z,9.73
2019-02-27T08:11:00.105Z,7.97
2019-02-27T08:12:03.742Z,8.77
2019-02-27T08:13:07.453Z,7.77
2019-02-27T08:14:12.876Z,7.80
2019-02-27T08:15:18.051Z,8.07
2019-02-27T08:16:22.631Z,8.27
2019-02-27T08:17:26.498Z,8.93
2019-02-27T08:18:33.574Z,8.93
2019-02-27T08:19:35.586Z,8.50
2019-02-27T08:20:39.230Z,10.13
2019-02-27T08:21:42.890Z,8.10
2019-02-27T08:22:46.518Z,8.97
2019-02-27T08:23:50.146Z,9.40
2019-02-27T08:24:53.783Z,10.50
2019-02-27T08:25:57.423Z,10.70
2019-02-27T08:27:01.095Z,9.87
2019-02-27T08:28:04.725Z,8.97
2019-02-27T08:29:08.366Z,8.53
2019-02-27T08:30:22.636Z,9.33
2019-02-27T08:31:28.259Z,9.40
2019-02-27T08:32:34.499Z,11.57
2019-02-27T08:33:37.398Z,10.13
2019-02-27T08:34:41.144Z,12.27
2019-02-27T08:35:44.775Z,15.33
2019-02-27T08:36:48.413Z,14.70
2019-02-27T08:38:01.907Z,11.93
2019-02-27T08:38:57.471Z,9.37
2019-02-27T08:40:01.383Z,9.40
2019-02-27T08:41:05.011Z,10.50
2019-02-27T08:42:08.961Z,10.47
2019-02-27T08:43:12.628Z,11.00
2019-02-27T08:44:16.263Z,10.17
2019-02-27T08:45:20.853Z,9.67
2019-02-27T08:46:24.500Z,8.73
2019-02-27T08:47:28.126Z,9.87
2019-02-27T08:48:31.788Z,9.90
2019-02-27T08:49:35.406Z,9.60
2019-02-27T08:50:39.043Z,9.43
2019-02-27T08:51:42.745Z,10.47
2019-02-27T08:52:50.568Z,9.10
2019-02-27T08:53:51.822Z,12.23
2019-02-27T08:54:56.119Z,9.90
2019-02-27T08:55:59.743Z,9.60
2019-02-27T08:57:03.387Z,9.53
2019-02-27T08:58:07.271Z,10.60
2019-02-27T08:59:11.396Z,9.53
2019-02-27T09:00:17.942Z,8.80
2019-02-27T09:01:22.330Z,8.37
2019-02-27T09:02:29.212Z,9.13
2019-02-27T09:03:36.160Z,10.23
2019-02-27T09:04:36.836Z,9.03
2019-02-27T09:05:40.467Z,9.27
2019-02-27T09:06:44.102Z,9.43
2019-02-27T09:07:47.838Z,8.90
2019-02-27T09:08:51.466Z,9.27
2019-02-27T09:09:55.276Z,9.67
2019-02-27T09:10:58.958Z,8.83
2019-02-27T09:12:03.177Z,8.90
2019-02-27T09:13:06.923Z,8.33
2019-02-27T09:14:12.030Z,8.80
2019-02-27T09:15:15.897Z,9.17
2019-02-27T09:16:19.538Z,8.90
2019-02-27T09:17:26.848Z,9.43
2019-02-27T09:18:29.275Z,9.93
2019-02-27T09:19:32.909Z,9.93
2019-02-27T09:20:36.592Z,10.00
2019-02-27T09:21:40.231Z,11.30
2019-02-27T09:22:43.867Z,13.80
2019-02-27T09:23:47.518Z,9.20
2019-02-27T09:24:51.149Z,13.53
2019-02-27T09:25:57.256Z,11.60
2019-02-27T09:27:00.215Z,11.43
2019-02-27T09:28:09.030Z,10.67
2019-02-27T09:29:09.319Z,10.00
2019-02-27T09:30:18.373Z,9.10
2019-02-27T09:31:22.041Z,9.20
2019-02-27T09:32:25.678Z,9.20
2019-02-27T09:33:38.354Z,8.53
2019-02-27T09:34:34.958Z,8.07
2019-02-27T09:35:38.867Z,10.20
2019-02-27T09:36:43.267Z,8.07
2019-02-27T09:37:48.256Z,8.70
2019-02-27T09:38:57.378Z,8.00
2019-02-27T09:39:58.629Z,11.27
2019-02-27T09:41:02.603Z,12.80
2019-02-27T09:42:06.277Z,11.17
2019-02-27T09:43:09.969Z,9.40
2019-02-27T09:44:14.422Z,10.60
2019-02-27T09:45:35.222Z,12.70
2019-02-27T09:46:39.156Z,11.97
2019-02-27T09:47:42.831Z,10.03
2019-02-27T09:48:46.464Z,8.80
2019-02-27T09:49:50.093Z,8.47
2019-02-27T09:50:53.736Z,9.57
2019-02-27T09:51:57.288Z,9.00
2019-02-27T09:53:03.297Z,9.03
2019-02-27T09:54:08.112Z,8.80
2019-02-27T09:55:12.699Z,8.70
2019-02-27T09:56:16.331Z,9.07
2019-02-27T09:57:19.971Z,9.40
2019-02-27T09:58:23.686Z,10.53
2019-02-27T09:59:27.275Z,9.17
2019-02-27T10:00:36.304Z,9.40
2019-02-27T10:01:39.940Z,8.90
2019-02-27T10:02:46.391Z,9.57
2019-02-27T10:03:48.939Z,9.30
2019-02-27T10:04:52.622Z,8.57
2019-02-27T10:05:56.243Z,8.97
2019-02-27T10:06:59.874Z,9.13
2019-02-27T10:08:03.510Z,9.07
2019-02-27T10:09:08.140Z,19.20
2019-02-27T10:10:11.833Z,13.43
2019-02-27T10:11:18.812Z,10.37
2019-02-27T10:12:21.040Z,9.70
2019-02-27T10:13:24.667Z,10.87
2019-02-27T10:14:28.301Z,8.53
2019-02-27T10:15:31.975Z,10.73
2019-02-27T10:16:35.613Z,10.43
2019-02-27T10:17:41.047Z,9.30
2019-02-27T10:18:44.809Z,9.90
2019-02-27T10:19:48.442Z,10.13
2019-02-27T10:20:52.212Z,10.07
2019-02-27T10:21:55.830Z,8.93
2019-02-27T10:22:59.735Z,10.07
2019-02-27T10:24:04.845Z,10.67
2019-02-27T10:25:09.549Z,9.83
2019-02-27T10:26:13.224Z,9.30
2019-02-27T10:27:16.860Z,9.10
2019-02-27T10:28:20.490Z,7.90
2019-02-27T10:29:24.127Z,10.13
2019-02-27T10:30:27.794Z,10.90
2019-02-27T10:31:31.454Z,9.93
2019-02-27T10:32:36.702Z,9.03
2019-02-27T10:33:42.819Z,8.80
2019-02-27T10:34:45.827Z,15.13
2019-02-27T10:35:51.164Z,11.13
2019-02-27T10:36:54.984Z,9.17
2019-02-27T10:37:58.777Z,9.50
2019-02-27T10:39:02.825Z,10.43
2019-02-27T10:40:23.976Z,9.87
2019-02-27T10:41:27.613Z,9.67
2019-02-27T10:42:31.466Z,9.97
2019-02-27T10:43:35.116Z,10.53
2019-02-27T10:44:38.758Z,8.90
2019-02-27T10:45:42.400Z,9.47
2019-02-27T10:46:46.335Z,9.93
2019-02-27T10:47:50.008Z,8.33
2019-02-27T10:48:53.659Z,8.50
2019-02-27T10:50:01.620Z,9.07
2019-02-27T10:51:02.916Z,10.67
2019-02-27T10:52:06.642Z,11.47
2019-02-27T10:53:10.677Z,11.30
2019-02-27T10:54:14.307Z,9.97
2019-02-27T10:55:22.260Z,9.43
2019-02-27T10:56:25.896Z,8.77
2019-02-27T10:57:31.868Z,8.27
2019-02-27T10:58:34.950Z,7.73
2019-02-27T10:59:38.581Z,8.83
2019-02-27T11:00:43.200Z,8.80
2019-02-27T11:01:46.856Z,9.83
2019-02-27T11:02:52.461Z,8.93
2019-02-27T11:03:55.996Z,7.87
2019-02-27T11:04:59.624Z,8.30
2019-02-27T11:06:03.265Z,8.93
2019-02-27T11:07:06.895Z,8.53
2019-02-27T11:08:10.599Z,8.77
2019-02-27T11:09:20.282Z,9.30
2019-02-27T11:10:24.753Z,8.30
2019-02-27T11:11:28.470Z,9.87
2019-02-27T11:12:32.397Z,8.67
2019-02-27T11:13:36.044Z,8.43
2019-02-27T11:14:39.705Z,8.07
2019-02-27T11:15:44.807Z,9.20
2019-02-27T11:16:48.779Z,8.33
2019-02-27T11:17:52.422Z,8.30
2019-02-27T11:18:56.062Z,7.97
2019-02-27T11:19:59.707Z,8.80
2019-02-27T11:21:03.455Z,7.93
2019-02-27T11:22:07.092Z,7.33
2019-02-27T11:23:10.729Z,7.70
2019-02-27T11:24:16.757Z,7.13
2019-02-27T11:25:22.541Z,7.40
2019-02-27T11:26:26.848Z,8.87
2019-02-27T11:27:30.485Z,10.53
2019-02-27T11:28:34.124Z,10.23
2019-02-27T11:29:37.680Z,7.97
2019-02-27T11:30:42.646Z,7.73
2019-02-27T11:31:46.285Z,7.80
2019-02-27T11:32:49.926Z,8.40
2019-02-27T11:33:53.562Z,8.30
2019-02-27T11:34:57.274Z,8.30
2019-02-27T11:36:03.196Z,9.40
2019-02-27T11:37:06.361Z,9.87
2019-02-27T11:38:10.565Z,9.37
2019-02-27T11:39:14.329Z,11.93
2019-02-27T11:40:20.541Z,8.90
2019-02-27T11:41:24.207Z,8.33
2019-02-27T11:42:28.976Z,8.37
2019-02-27T11:43:33.198Z,9.23
2019-02-27T11:44:37.254Z,9.03
2019-02-27T11:45:41.041Z,8.27
2019-02-27T11:46:44.715Z,9.37
2019-02-27T11:47:48.356Z,8.97
2019-02-27T11:48:52.004Z,8.83
2019-02-27T11:49:55.666Z,7.87
2019-02-27T11:50:59.692Z,9.33
2019-02-27T11:52:03.379Z,11.43
2019-02-27T11:53:07.019Z,13.33
2019-02-27T11:54:10.662Z,12.67
2019-02-27T11:55:16.314Z,9.30
2019-02-27T11:56:20.858Z,9.93
2019-02-27T11:57:27.329Z,8.87
2019-02-27T11:58:31.070Z,7.10
2019-02-27T11:59:34.703Z,7.37
2019-02-27T12:00:38.641Z,7.47
2019-02-27T12:01:42.380Z,8.50
2019-02-27T12:02:46.139Z,8.20
2019-02-27T12:03:49.767Z,9.57
2019-02-27T12:04:56.479Z,8.20
2019-02-27T12:05:58.788Z,8.10
2019-02-27T12:07:02.436Z,8.83
2019-02-27T12:08:06.179Z,8.30
2019-02-27T12:09:09.811Z,9.30
2019-02-27T12:10:19.211Z,9.63
2019-02-27T12:11:22.846Z,8.90
2019-02-27T12:12:26.496Z,8.77
2019-02-27T12:13:32.306Z,7.13
2019-02-27T12:14:35.461Z,7.50
2019-02-27T12:15:43.347Z,7.97
2019-02-27T12:16:44.473Z,7.13
2019-02-27T12:17:48.507Z,7.47
2019-02-27T12:18:52.171Z,6.93
2019-02-27T12:19:55.832Z,9.77
2019-02-27T12:20:59.480Z,10.93
2019-02-27T12:22:03.527Z,10.30
2019-02-27T12:23:07.511Z,9.40
2019-02-27T12:24:12.555Z,9.00
2019-02-27T12:25:17.702Z,7.83
2019-02-27T12:26:21.368Z,8.03
2019-02-27T12:27:47.736Z,8.53
2019-02-27T12:28:30.401Z,9.07
2019-02-27T12:29:34.042Z,8.60
2019-02-27T12:30:38.041Z,9.30
2019-02-27T12:31:41.898Z,9.63
2019-02-27T12:32:45.651Z,11.77
2019-02-27T12:33:49.402Z,9.67
2019-02-27T12:34:53.088Z,9.13
2019-02-27T12:35:56.724Z,9.80
2019-02-27T12:37:00.412Z,9.70
2019-02-27T12:38:08.265Z,10.90
2019-02-27T12:39:10.495Z,9.70
2019-02-27T12:40:24.074Z,8.57
2019-02-27T12:41:24.461Z,12.23
2019-02-27T12:42:36.932Z,8.70
2019-02-27T12:43:33.398Z,9.60
2019-02-27T12:44:37.038Z,7.63
2019-02-27T12:45:41.017Z,8.17
2019-02-27T12:46:44.763Z,9.60
2019-02-27T12:47:48.480Z,11.70
2019-02-27T12:48:52.040Z,12.30
2019-02-27T12:49:55.681Z,9.93
2019-02-27T12:51:03.466Z,8.40
2019-02-27T12:52:04.719Z,8.60
2019-02-27T12:53:08.361Z,11.83
2019-02-27T12:54:11.996Z,9.33
2019-02-27T12:55:15.839Z,8.30
2019-02-27T12:56:19.559Z,9.50
2019-02-27T12:57:23.200Z,10.07
2019-02-27T12:58:26.837Z,8.30
2019-02-27T12:59:30.707Z,7.60
2019-02-27T13:00:36.249Z,8.70
2019-02-27T13:01:39.993Z,8.33
2019-02-27T13:02:43.629Z,10.77
2019-02-27T13:03:47.501Z,8.60
2019-02-27T13:04:52.635Z,9.03
2019-02-27T13:05:58.200Z,9.50
2019-02-27T13:07:01.890Z,11.77
2019-02-27T13:08:05.537Z,10.80
2019-02-27T13:09:09.176Z,9.53
2019-02-27T13:10:18.652Z,9.00
2019-02-27T13:11:22.289Z,10.63
2019-02-27T13:12:25.960Z,8.47
2019-02-27T13:13:29.609Z,8.63
2019-02-27T13:14:33.860Z,11.30
2019-02-27T13:15:38.314Z,9.37
2019-02-27T13:16:43.036Z,7.60
2019-02-27T13:17:46.702Z,8.27
2019-02-27T13:18:50.337Z,7.93
2019-02-27T13:19:53.966Z,8.77
2019-02-27T13:20:57.605Z,8.00
2019-02-27T13:22:01.243Z,7.13
2019-02-27T13:23:05.567Z,7.17
2019-02-27T13:24:09.331Z,7.90
2019-02-27T13:25:12.967Z,11.87
2019-02-27T13:26:16.601Z,9.33
2019-02-27T13:27:20.250Z,12.23
2019-02-27T13:28:23.916Z,14.30
2019-02-27T13:29:27.550Z,9.53
2019-02-27T13:30:31.184Z,7.70
2019-02-27T13:31:34.896Z,7.83
2019-02-27T13:32:38.541Z,10.13
2019-02-27T13:33:42.237Z,7.83
2019-02-27T13:34:48.241Z,7.00
2019-02-27T13:35:51.305Z,6.53
2019-02-27T13:36:54.940Z,6.93
2019-02-27T13:37:58.886Z,5.40
2019-02-27T13:39:02.552Z,7.07
2019-02-27T13:40:14.929Z,6.53
2019-02-27T13:41:18.564Z,8.43
2019-02-27T13:42:22.204Z,7.87
2019-02-27T13:43:27.083Z,6.77
2019-02-27T13:44:34.482Z,7.07
2019-02-27T13:45:36.773Z,6.90
2019-02-27T13:46:40.422Z,7.27
2019-02-27T13:47:44.050Z,7.43
2019-02-27T13:48:47.693Z,7.10
2019-02-27T13:49:51.367Z,6.43
2019-02-27T13:50:56.637Z,6.30
2019-02-27T13:52:00.654Z,6.47
2019-02-27T13:53:04.392Z,6.10
2019-02-27T13:54:08.032Z,5.87
2019-02-27T13:55:14.632Z,6.20
2019-02-27T13:56:18.272Z,5.80
2019-02-27T13:57:24.844Z,6.63
2019-02-27T13:58:27.185Z,6.37
2019-02-27T13:59:30.842Z,5.80
2019-02-27T14:00:37.018Z,6.73
2019-02-27T14:01:40.654Z,6.77
2019-02-27T14:02:44.297Z,6.97
2019-02-27T14:03:48.399Z,7.23
2019-02-27T14:04:53.828Z,6.63
2019-02-27T14:05:58.063Z,7.47
2019-02-27T14:07:01.697Z,7.33
2019-02-27T14:08:06.193Z,7.87
2019-02-27T14:09:10.315Z,7.80
2019-02-27T14:10:19.831Z,7.63
2019-02-27T14:11:24.873Z,6.73
2019-02-27T14:12:29.995Z,6.33
2019-02-27T14:13:35.766Z,4.87
2019-02-27T14:14:39.319Z,5.33
2019-02-27T14:15:43.029Z,5.97
2019-02-27T14:16:46.713Z,5.83
2019-02-27T14:17:50.538Z,5.57
2019-02-27T14:18:54.295Z,5.73
2019-02-27T14:19:57.894Z,6.40
2019-02-27T14:21:02.304Z,7.03
2019-02-27T14:22:07.535Z,6.40
2019-02-27T14:23:11.930Z,9.40